Key Biscayne, FL (33149)

7:55 AM EDT on June 03, 2015 (GMT -0400)
Silver Bluff | | Change Station
CLOSE
Current Station
Personal Weather Station
Location: Miami, FL
Elevation: 15 ft
Nearby Weather Stations

Elev 15 ft 25.75 °N, 80.23 °W | Updated 5 seconds ago

Overcast
Overcast
77.4 °F
Feels Like 79 °F
N
0.0
Wind Variable Wind from NNW
Gusts 0.0 mph

Today
High -- | Low -- °F
--% Chance of Precip.
Yesterday
High -- | Low -- °F
Precip. -- in
6:29 AM 8:08 PM
Full, 99% visible
Pressure 29.92 in
Visibility 10.0 miles
Clouds Few 4800 ft
Mostly Cloudy 6000 ft
Overcast 20000 ft
Heat Index 79 °F
Dew Point 68 °F
Humidity 73%
Rainfall 0.00 in
Snow Depth Not available.
UV 0 out of 12
Pollen .50 out of 12
Air Quality Not available.
Flu Activity Sporadic
METAR KMIA 031053Z 32004KT 10SM FEW048 BKN060 OVC200 24/19 A2992 RMK AO2 SLP131 T02390189

More Conditions Fewer Conditions

Pressure 29.92 in
Visibility 10.0 miles
Clouds Few 4800 ft
Mostly Cloudy 6000 ft
Overcast 20000 ft
Heat Index 79 °F
Dew Point 68 °F
Humidity 73%
Rainfall 0.00 in
Snow Depth Not available.
UV 0 out of 12
Pollen .50 out of 12
Air Quality Not available.
Flu Activity Sporadic
METAR KMIA 031053Z 32004KT 10SM FEW048 BKN060 OVC200 24/19 A2992 RMK AO2 SLP131 T02390189

More Conditions Fewer Conditions

10-Day Weather Forecast

×

Almanac

Astronomy

Jun. 03, 2015 Rise Set
Actual Time
Civil Twilight
Nautical Twilight
Astronomical Twilight
Moon
Length of Visible Light
Length of Day
Tomorrow will be .
, % of the Moon is Illuminated

Today's Extremes

State Highs State Lows

Community

WunderPhotos

Upload Photos

1,826,205 photos uploaded!

WunderBlogs® & News

Nearby

Air Quality

  Air Quality AQ Index Pollutant
Not available.

Snow Depth

Station Depth Elevation

Earthquake Activity

City Distance Mag. Time & Date
Minimum magnitude displayed is 2.5.

Coastal Water Temperatures

Place Temperature

Stations

Nearby Weather Stations

Station Location Temp. Windchill Dew Point Humidity Wind Precip. Elev Updated Type